Time;durP1;ratioP1;P1;durP2;ratioP2;P2;SDS_P1;SDS_P2;PMS_P1;PMS_P2;Temp;Humidity;BMP_temperature;BMP_pressure;BME280_temperature;BME280_humidity;BME280_pressure;Samples;Min_cycle;Max_cycle;Signal;HPM_P1;HPM_P2
2022/03/24 00:01:39;;;;;;;19.52;8.52;;;2.20;99.90;;;;;;5059577;28;20036;-80
2022/03/24 00:04:05;;;;;;;19.55;9.20;;;2.10;99.90;;;;;;5059319;28;20414;-84
2022/03/24 00:06:31;;;;;;;19.67;9.10;;;2.30;99.90;;;;;;5062151;28;20031;-83
2022/03/24 00:08:57;;;;;;;22.35;9.60;;;2.40;99.90;;;;;;5076913;28;20020;-84
2022/03/24 00:11:22;;;;;;;20.63;8.85;;;2.40;99.90;;;;;;5065994;28;20016;-84
2022/03/24 00:13:48;;;;;;;18.52;9.68;;;2.50;99.90;;;;;;5086291;28;20086;-80
2022/03/24 00:16:15;;;;;;;18.83;9.40;;;2.50;99.90;;;;;;5051746;28;20518;-79
2022/03/24 00:18:41;;;;;;;30.98;10.68;;;2.50;99.90;;;;;;5069990;28;20035;-82
2022/03/24 00:21:08;;;;;;;24.30;11.82;;;2.40;99.90;;;;;;5037833;28;20283;-80
2022/03/24 00:23:34;;;;;;;24.52;9.68;;;2.30;99.90;;;;;;5044523;28;20049;-80
2022/03/24 00:26:00;;;;;;;22.95;10.23;;;2.40;99.90;;;;;;5061449;28;20474;-82
2022/03/24 00:28:26;;;;;;;26.08;10.57;;;2.30;99.90;;;;;;5048434;28;20044;-80
2022/03/24 00:30:52;;;;;;;23.92;10.15;;;2.30;99.90;;;;;;5035059;28;20035;-81
2022/03/24 00:33:18;;;;;;;25.17;9.98;;;2.20;99.90;;;;;;5060852;28;20017;-81
2022/03/24 00:35:44;;;;;;;22.05;9.88;;;2.20;99.90;;;;;;5041109;28;20036;-82
2022/03/24 00:38:09;;;;;;;22.73;10.68;;;2.20;99.90;;;;;;5035524;28;20070;-78
2022/03/24 00:40:35;;;;;;;18.80;8.95;;;2.20;99.90;;;;;;5057859;28;20047;-81
2022/03/24 00:43:02;;;;;;;18.80;8.23;;;2.10;99.90;;;;;;5048709;28;20779;-81
2022/03/24 00:45:30;;;;;;;21.55;8.85;;;2.00;99.90;;;;;;5064066;28;20815;-84
2022/03/24 00:47:55;;;;;;;25.48;9.60;;;2.10;99.90;;;;;;5048685;28;20033;-80
2022/03/24 00:50:21;;;;;;;19.83;9.70;;;1.60;99.90;;;;;;5043139;28;20116;-82
2022/03/24 00:52:48;;;;;;;27.65;10.93;;;0.30;99.90;;;;;;5072234;28;20492;-82
2022/03/24 00:55:19;;;;;;;25.02;9.25;;;1.70;99.90;;;;;;5070331;28;20043;-85
2022/03/24 00:57:56;;;;;;;20.85;9.77;;;-0.10;99.90;;;;;;5048968;28;20028;-82
2022/03/24 01:00:30;;;;;;;20.33;9.05;;;0.60;99.90;;;;;;5065531;28;20044;-82
2022/03/24 01:05:32;;;;;;;25.63;10.20;;;1.90;99.90;;;;;;5106752;23;20075;-83
2022/03/24 01:08:01;;;;;;;23.00;8.57;;;1.80;99.90;;;;;;5050596;28;20009;-84
2022/03/24 01:10:27;;;;;;;20.40;8.48;;;1.70;99.90;;;;;;5027322;28;20063;-82
2022/03/24 01:12:55;;;;;;;23.98;9.27;;;1.70;99.90;;;;;;5049843;28;20017;-84
2022/03/24 01:15:28;;;;;;;21.23;9.50;;;1.50;99.90;;;;;;5063954;28;20041;-82
2022/03/24 01:18:19;;;;;;;25.17;10.00;;;1.60;99.90;;;;;;5037060;28;20057;-84
2022/03/24 01:20:46;;;;;;;20.42;9.23;;;1.70;99.90;;;;;;5053722;28;20049;-78
2022/03/24 01:23:15;;;;;;;26.58;10.60;;;1.70;99.90;;;;;;5068217;28;20366;-80
2022/03/24 01:25:42;;;;;;;19.38;9.43;;;1.60;99.90;;;;;;5066946;28;20059;-82
2022/03/24 01:28:35;;;;;;;22.67;9.00;;;1.40;99.90;;;;;;5053050;28;20036;-85
2022/03/24 01:31:02;;;;;;;18.83;8.30;;;1.40;99.90;;;;;;5071032;28;20049;-80
2022/03/24 01:33:37;;;;;;;26.67;9.98;;;1.30;99.90;;;;;;5052057;28;20013;-84
2022/03/24 01:36:06;;;;;;;21.63;9.65;;;-0.60;99.90;;;;;;5043759;28;20047;-81
2022/03/24 01:38:42;;;;;;;19.83;8.88;;;1.10;99.90;;;;;;5058603;28;20035;-83
2022/03/24 01:41:08;;;;;;;22.23;10.15;;;1.10;99.90;;;;;;5050407;28;20469;-81
2022/03/24 01:43:35;;;;;;;24.55;10.85;;;1.10;99.90;;;;;;5046322;28;20040;-81
2022/03/24 01:46:01;;;;;;;21.40;9.88;;;1.00;99.90;;;;;;5045683;28;20029;-80
2022/03/24 01:48:27;;;;;;;19.75;9.32;;;0.90;99.90;;;;;;5041231;28;20445;-81
2022/03/24 01:50:53;;;;;;;28.25;10.10;;;0.80;99.90;;;;;;5043380;28;20068;-82
2022/03/24 01:53:19;;;;;;;25.27;11.30;;;0.90;99.90;;;;;;5058755;28;20027;-81
2022/03/24 01:55:47;;;;;;;24.27;10.13;;;1.00;99.90;;;;;;5058009;28;20033;-80
2022/03/24 01:58:13;;;;;;;26.98;10.25;;;1.10;99.90;;;;;;5056677;28;20108;-81
2022/03/24 02:00:40;;;;;;;23.85;10.82;;;1.40;99.90;;;;;;5059964;28;20062;-81
2022/03/24 02:03:06;;;;;;;21.52;10.20;;;1.40;99.90;;;;;;5061915;28;20029;-81
2022/03/24 02:05:33;;;;;;;17.70;8.35;;;1.30;99.90;;;;;;5043622;28;20098;-80
2022/03/24 02:08:03;;;;;;;25.05;10.27;;;1.10;99.90;;;;;;5059216;28;20031;-81
2022/03/24 02:10:32;;;;;;;;;;;0.90;99.90;;;;;;5060701;28;20088;-81
2022/03/24 02:12:58;;;;;;;17.92;7.55;;;0.80;99.90;;;;;;5043819;28;19911;-80
2022/03/24 02:15:25;;;;;;;20.15;9.88;;;0.70;99.90;;;;;;5063047;28;20036;-81
2022/03/24 02:17:52;;;;;;;20.52;9.43;;;0.70;99.90;;;;;;5065584;28;20025;-82
2022/03/24 02:20:22;;;;;;;22.20;9.43;;;0.70;99.90;;;;;;5065832;28;20032;-81
2022/03/24 02:22:49;;;;;;;21.23;10.10;;;0.60;99.90;;;;;;5061523;28;20017;-80
2022/03/24 02:25:15;;;;;;;23.80;9.82;;;0.60;99.90;;;;;;5059057;28;20044;-80
2022/03/24 02:27:44;;;;;;;21.77;8.88;;;0.50;99.90;;;;;;5060609;28;20381;-81
2022/03/24 02:30:10;;;;;;;28.60;9.10;;;0.50;99.90;;;;;;5061945;28;20082;-81
2022/03/24 02:32:36;;;;;;;25.23;10.10;;;0.60;99.90;;;;;;5062170;28;20021;-81
2022/03/24 02:35:02;;;;;;;21.92;10.52;;;0.40;99.90;;;;;;5045049;28;20105;-82
2022/03/24 02:37:28;;;;;;;22.13;10.30;;;0.40;99.90;;;;;;5062995;28;20111;-80
2022/03/24 02:39:57;;;;;;;28.60;11.15;;;0.40;99.90;;;;;;5046740;28;20025;-81
2022/03/24 02:42:25;;;;;;;26.83;12.07;;;0.40;99.90;;;;;;5065808;28;20040;-80
2022/03/24 02:44:54;;;;;;;23.27;11.75;;;0.40;99.90;;;;;;5061971;28;20439;-81
2022/03/24 02:47:21;;;;;;;24.42;9.77;;;0.50;99.90;;;;;;5063798;28;20025;-82
2022/03/24 02:49:49;;;;;;;23.98;10.40;;;0.50;99.90;;;;;;5054334;28;20029;-82
2022/03/24 02:52:15;;;;;;;20.98;9.90;;;0.40;99.90;;;;;;5070948;28;20056;-82
2022/03/24 02:54:42;;;;;;;23.55;10.70;;;0.40;99.90;;;;;;5072892;28;20087;-82
2022/03/24 02:57:09;;;;;;;26.88;10.02;;;0.30;99.90;;;;;;5074937;28;20016;-83
2022/03/24 02:59:35;;;;;;;26.67;10.50;;;0.10;99.90;;;;;;5068551;28;20155;-81
2022/03/24 03:02:06;;;;;;;23.17;10.52;;;0.20;99.90;;;;;;5064691;28;20036;-81
2022/03/24 03:04:34;;;;;;;23.42;10.80;;;0.00;99.90;;;;;;5047507;28;20053;-81
2022/03/24 03:07:02;;;;;;;28.30;11.00;;;-0.10;99.90;;;;;;5063376;28;20024;-80
2022/03/24 03:09:29;;;;;;;29.17;11.32;;;-0.10;99.90;;;;;;5063031;28;20024;-80
2022/03/24 03:11:56;;;;;;;21.85;9.93;;;-0.20;99.90;;;;;;5064372;28;20178;-81
2022/03/24 03:14:22;;;;;;;27.90;10.82;;;-0.10;99.90;;;;;;5045974;28;20005;-81
2022/03/24 03:16:48;;;;;;;24.50;11.13;;;-0.20;99.90;;;;;;5066880;28;20473;-80
2022/03/24 03:19:17;;;;;;;21.08;8.82;;;-0.20;99.90;;;;;;5045108;28;20017;-81
2022/03/24 03:21:43;;;;;;;21.47;10.63;;;-0.30;99.90;;;;;;5062632;28;20025;-80
2022/03/24 03:24:12;;;;;;;25.45;10.57;;;-0.40;99.90;;;;;;5064283;28;20025;-81
2022/03/24 03:26:38;;;;;;;;;;;0.10;99.90;;;;;;5062506;28;20071;-80
2022/03/24 03:29:06;;;;;;;22.98;10.20;;;-0.20;99.90;;;;;;5048058;28;19912;-81
2022/03/24 03:31:34;;;;;;;25.85;10.77;;;-0.30;99.90;;;;;;5066981;28;20033;-81
2022/03/24 03:34:00;;;;;;;27.90;11.35;;;-0.30;99.90;;;;;;5050898;28;20031;-81
2022/03/24 03:36:25;;;;;;;24.08;10.50;;;-0.40;99.90;;;;;;5052382;28;20124;-80
2022/03/24 03:38:51;;;;;;;33.63;11.90;;;-0.30;99.90;;;;;;5054573;28;20025;-82
2022/03/24 03:41:20;;;;;;;31.83;11.35;;;0.10;99.90;;;;;;5071199;28;20056;-80
2022/03/24 03:43:47;;;;;;;21.15;10.98;;;-0.60;99.90;;;;;;5051085;28;20013;-80
2022/03/24 03:46:13;;;;;;;26.73;10.85;;;-0.10;99.90;;;;;;5053154;28;20108;-80
2022/03/24 03:48:39;;;;;;;21.20;10.60;;;-0.60;99.90;;;;;;5052205;28;20036;-80
2022/03/24 03:51:07;;;;;;;21.17;9.60;;;-0.70;99.90;;;;;;5053378;28;20088;-79
2022/03/24 03:53:36;;;;;;;24.60;9.93;;;-0.60;99.90;;;;;;5052449;28;20032;-80
2022/03/24 03:56:04;;;;;;;25.02;10.70;;;-0.50;99.90;;;;;;5071019;28;20043;-81
2022/03/24 03:58:30;;;;;;;28.70;10.85;;;-0.40;99.90;;;;;;5053085;28;20045;-80
2022/03/24 04:00:56;;;;;;;23.52;10.60;;;-0.50;99.90;;;;;;5069767;28;20091;-81
2022/03/24 04:03:29;;;;;;;32.58;11.48;;;-0.50;99.90;;;;;;5049705;28;20261;-81
2022/03/24 04:05:56;;;;;;;21.00;10.38;;;-0.30;99.90;;;;;;5049035;28;20029;-80
2022/03/24 04:08:22;;;;;;;24.45;11.68;;;-0.50;99.90;;;;;;5050178;28;20084;-80
2022/03/24 04:10:49;;;;;;;29.08;12.07;;;-0.80;99.90;;;;;;5070796;28;20051;-81
2022/03/24 04:13:15;;;;;;;25.33;11.65;;;-0.70;99.90;;;;;;5052133;28;20235;-80
2022/03/24 04:15:41;;;;;;;25.33;10.23;;;-0.30;99.90;;;;;;5053625;28;20096;-80
2022/03/24 04:18:07;;;;;;;27.27;12.38;;;-0.10;99.90;;;;;;5051551;28;20021;-81
2022/03/24 04:20:34;;;;;;;25.25;9.85;;;-0.30;99.90;;;;;;5050917;28;20029;-80
2022/03/24 04:23:01;;;;;;;27.30;10.68;;;-0.10;99.90;;;;;;5051226;28;20025;-81
2022/03/24 04:25:27;;;;;;;27.98;10.48;;;-0.70;99.90;;;;;;5044743;28;20118;-81
2022/03/24 04:27:53;;;;;;;22.92;10.73;;;-0.80;99.90;;;;;;5064136;28;20052;-80
2022/03/24 04:30:19;;;;;;;30.58;12.25;;;-0.20;99.90;;;;;;5048443;28;20025;-81
2022/03/24 04:32:45;;;;;;;31.95;12.65;;;0.10;99.90;;;;;;5050109;28;20049;-82
2022/03/24 04:35:13;;;;;;;26.88;10.85;;;0.00;99.90;;;;;;5068531;28;20028;-82
2022/03/24 04:37:40;;;;;;;27.88;12.10;;;-0.10;99.90;;;;;;5072255;28;20040;-82
2022/03/24 04:40:07;;;;;;;26.50;10.57;;;-0.20;99.90;;;;;;5054271;28;20070;-82
2022/03/24 04:42:34;;;;;;;22.27;10.60;;;-0.40;99.90;;;;;;5054194;28;20237;-82
2022/03/24 04:45:00;;;;;;;26.45;10.70;;;-0.60;99.90;;;;;;5053165;28;20032;-81
2022/03/24 04:47:26;;;;;;;25.38;10.93;;;0.00;99.90;;;;;;5065254;28;20041;-81
2022/03/24 04:49:52;;;;;;;28.90;11.93;;;-0.80;99.90;;;;;;5048973;28;20025;-81
2022/03/24 04:52:19;;;;;;;22.48;9.45;;;-0.60;99.90;;;;;;5069906;28;20056;-79
2022/03/24 04:54:45;;;;;;;27.60;11.50;;;-0.80;99.90;;;;;;5051199;28;20044;-79
2022/03/24 04:57:11;;;;;;;27.83;11.70;;;-0.50;99.90;;;;;;5069859;28;20025;-81
2022/03/24 04:59:37;;;;;;;23.55;10.32;;;-0.10;99.90;;;;;;5071359;28;20037;-81
2022/03/24 05:02:03;;;;;;;26.20;9.40;;;0.00;99.90;;;;;;5055122;28;20047;-80
2022/03/24 05:04:29;;;;;;;24.92;10.00;;;-1.20;99.90;;;;;;5054861;28;20044;-83
2022/03/24 05:06:54;;;;;;;26.23;10.80;;;-0.50;99.90;;;;;;5072021;28;20213;-81
2022/03/24 05:09:20;;;;;;;27.15;10.75;;;-1.30;99.90;;;;;;5071556;28;20047;-80
2022/03/24 05:11:46;;;;;;;27.20;10.05;;;-1.30;99.90;;;;;;5070096;28;20039;-81
2022/03/24 05:14:12;;;;;;;27.60;10.30;;;-0.50;99.90;;;;;;5054716;28;20025;-80
2022/03/24 05:16:38;;;;;;;29.33;13.02;;;0.00;99.90;;;;;;5070084;28;20040;-80
2022/03/24 05:19:04;;;;;;;27.73;11.23;;;-0.20;99.90;;;;;;5052788;28;20068;-81
2022/03/24 05:21:32;;;;;;;23.52;9.75;;;-1.20;99.90;;;;;;5050633;28;20021;-80
2022/03/24 05:23:59;;;;;;;31.02;12.32;;;-1.20;99.90;;;;;;5069097;28;20021;-80
2022/03/24 05:26:25;;;;;;;22.85;9.40;;;-0.40;99.90;;;;;;5050765;28;20033;-80
2022/03/24 05:28:51;;;;;;;26.55;9.90;;;-1.50;99.90;;;;;;5074610;28;20017;-80
2022/03/24 05:31:17;;;;;;;28.73;10.75;;;-1.50;99.90;;;;;;5072083;28;20084;-81
2022/03/24 05:33:43;;;;;;;30.67;11.75;;;-1.50;99.90;;;;;;5069971;28;20020;-82
2022/03/24 05:36:10;;;;;;;32.38;13.43;;;-0.60;99.90;;;;;;5072363;28;20494;-80
2022/03/24 05:38:36;;;;;;;32.65;11.43;;;-1.10;99.90;;;;;;5054218;28;20104;-80
2022/03/24 05:41:02;;;;;;;32.95;13.57;;;-0.80;99.90;;;;;;5072064;28;20009;-83
2022/03/24 05:43:29;;;;;;;27.85;12.10;;;-1.10;99.90;;;;;;5072435;28;20021;-82
2022/03/24 05:45:55;;;;;;;25.25;11.38;;;-1.10;99.90;;;;;;5071106;28;20029;-80
2022/03/24 05:48:20;;;;;;;28.23;11.32;;;-1.10;99.90;;;;;;5070977;28;20011;-80
2022/03/24 05:50:46;;;;;;;29.33;12.90;;;-0.80;99.90;;;;;;5051578;28;20011;-79
2022/03/24 05:53:12;;;;;;;27.42;12.07;;;-0.90;99.90;;;;;;5067740;28;20028;-80
2022/03/24 05:55:40;;;;;;;21.95;10.52;;;-0.70;99.90;;;;;;5067459;28;20058;-82
2022/03/24 05:58:06;;;;;;;28.92;11.73;;;-0.70;99.90;;;;;;5053487;28;20027;-80
2022/03/24 06:00:33;;;;;;;34.13;12.98;;;-0.60;99.90;;;;;;5055214;28;20076;-82
2022/03/24 06:03:00;;;;;;;30.65;12.45;;;-0.40;99.90;;;;;;5055165;28;20017;-80
2022/03/24 06:05:26;;;;;;;31.23;11.38;;;-0.30;99.90;;;;;;5064933;28;20073;-81
2022/03/24 06:07:52;;;;;;;31.45;11.98;;;-0.20;99.90;;;;;;5034555;28;20532;-79
2022/03/24 06:10:18;;;;;;;29.52;11.88;;;-0.20;99.90;;;;;;5034167;28;20571;-81
2022/03/24 06:12:46;;;;;;;34.85;13.10;;;0.00;99.90;;;;;;5034806;28;20051;-80
2022/03/24 06:15:12;;;;;;;26.08;11.05;;;0.20;99.90;;;;;;5029381;28;20033;-80
2022/03/24 06:17:38;;;;;;;30.30;11.35;;;0.40;99.90;;;;;;5030100;28;20025;-79
2022/03/24 06:20:06;;;;;;;33.05;12.30;;;0.60;99.90;;;;;;5030760;28;20498;-80
2022/03/24 06:22:57;;;;;;;27.90;11.52;;;0.90;99.90;;;;;;5029685;28;20457;-80
2022/03/24 06:25:23;;;;;;;22.00;10.35;;;1.30;99.90;;;;;;5030630;28;20026;-80
2022/03/24 06:27:51;;;;;;;21.25;9.90;;;1.60;99.90;;;;;;5030748;28;20036;-80
2022/03/24 06:30:17;;;;;;;31.50;11.20;;;2.00;99.90;;;;;;5031763;28;20026;-80
2022/03/24 06:32:43;;;;;;;23.52;10.15;;;2.10;99.90;;;;;;5032465;28;20084;-80
2022/03/24 06:35:09;;;;;;;22.67;10.85;;;2.30;99.90;;;;;;5031431;28;20091;-80
2022/03/24 06:37:41;;;;;;;22.92;10.02;;;2.20;99.90;;;;;;5032576;28;20030;-81
2022/03/24 06:40:10;;;;;;;27.63;10.45;;;2.30;99.90;;;;;;5034459;28;20105;-81
2022/03/24 06:42:36;;;;;;;27.77;11.50;;;2.40;99.90;;;;;;5035977;28;20025;-81
2022/03/24 06:45:22;;;;;;;30.98;12.30;;;2.50;99.90;;;;;;5032689;28;20060;-80
2022/03/24 06:47:49;;;;;;;24.98;12.15;;;2.50;99.90;;;;;;5029809;28;20026;-80
2022/03/24 06:50:15;;;;;;;26.80;12.00;;;2.60;99.90;;;;;;5031826;28;20026;-81
2022/03/24 06:52:42;;;;;;;26.77;11.40;;;2.70;99.90;;;;;;5033016;28;20428;-81
2022/03/24 06:55:09;;;;;;;33.15;13.18;;;2.90;99.90;;;;;;5034923;28;20197;-82
2022/03/24 06:57:36;;;;;;;30.67;13.00;;;3.00;99.90;;;;;;5031508;28;20036;-80
2022/03/24 07:00:03;;;;;;;30.00;12.70;;;3.00;99.90;;;;;;5036170;28;20486;-82
2022/03/24 07:02:29;;;;;;;29.13;14.40;;;3.10;99.90;;;;;;5035383;28;20482;-82
2022/03/24 07:04:56;;;;;;;28.25;12.40;;;3.20;99.90;;;;;;5058346;28;20044;-82
2022/03/24 07:07:22;;;;;;;32.35;15.05;;;3.30;99.90;;;;;;5045239;28;20125;-82
2022/03/24 07:09:47;;;;;;;30.23;13.98;;;3.60;99.90;;;;;;5062919;28;20354;-81
2022/03/24 07:12:13;;;;;;;26.30;11.98;;;4.00;99.90;;;;;;5046630;28;20041;-81
2022/03/24 07:14:39;;;;;;;26.85;11.60;;;4.20;99.90;;;;;;5037609;28;20170;-82
2022/03/24 07:17:04;;;;;;;25.02;11.23;;;4.50;99.90;;;;;;5020688;28;20576;-82
2022/03/24 07:19:30;;;;;;;30.50;12.15;;;4.60;99.90;;;;;;5016941;28;20025;-81
2022/03/24 07:21:56;;;;;;;29.85;14.43;;;4.80;99.90;;;;;;5024527;28;20032;-81
2022/03/24 07:24:21;;;;;;;27.55;12.25;;;4.90;99.90;;;;;;5042751;28;20088;-82
2022/03/24 07:26:47;;;;;;;37.22;15.95;;;5.00;99.90;;;;;;5029008;28;20031;-81
2022/03/24 07:29:14;;;;;;;39.88;17.05;;;5.00;99.90;;;;;;5027628;28;20048;-81
2022/03/24 07:31:41;;;;;;;29.77;13.80;;;5.20;99.90;;;;;;5042599;28;20049;-80
2022/03/24 07:34:07;;;;;;;32.20;12.18;;;5.40;99.90;;;;;;5025286;28;20321;-80
2022/03/24 07:36:32;;;;;;;32.70;12.82;;;5.60;99.90;;;;;;5045104;28;20037;-82
2022/03/24 07:39:02;;;;;;;30.80;14.15;;;5.70;99.90;;;;;;5025424;28;20075;-81
2022/03/24 07:41:29;;;;;;;24.88;12.25;;;5.80;99.90;;;;;;5034363;28;20056;-83
2022/03/24 07:43:55;;;;;;;28.35;14.10;;;6.00;99.90;;;;;;5049037;28;20032;-82
2022/03/24 07:46:20;;;;;;;27.73;11.05;;;6.10;99.90;;;;;;5047165;28;20083;-81
2022/03/24 07:48:48;;;;;;;27.48;11.85;;;6.30;99.90;;;;;;5066452;28;20024;-83
2022/03/24 07:51:15;;;;;;;25.67;11.30;;;6.30;99.90;;;;;;5056057;28;20059;-83
2022/03/24 07:53:47;;;;;;;23.45;11.55;;;6.40;99.90;;;;;;5054534;28;20028;-83
2022/03/24 07:56:14;;;;;;;32.78;13.48;;;6.60;99.90;;;;;;5052753;28;20044;-80
2022/03/24 07:58:40;;;;;;;24.65;11.80;;;6.70;99.90;;;;;;5040803;28;20028;-81
2022/03/24 08:01:06;;;;;;;25.13;12.10;;;7.00;99.90;;;;;;5034223;28;20038;-82
2022/03/24 08:03:34;;;;;;;25.98;11.52;;;7.80;99.90;;;;;;5050613;28;20025;-83
2022/03/24 08:06:02;;;;;;;26.63;12.30;;;7.40;99.90;;;;;;5014015;28;20056;-83
2022/03/24 08:08:28;;;;;;;23.33;10.52;;;7.40;99.90;;;;;;5028589;28;20064;-82
2022/03/24 08:10:54;;;;;;;30.02;11.27;;;7.70;99.90;;;;;;5030672;28;20028;-82
2022/03/24 08:13:21;;;;;;;23.30;11.50;;;7.80;99.90;;;;;;5046824;28;20021;-83
2022/03/24 08:15:48;;;;;;;26.60;11.52;;;8.00;99.90;;;;;;5026074;28;20128;-83
2022/03/24 08:18:15;;;;;;;25.75;11.55;;;8.10;99.90;;;;;;5038499;28;20025;-82
2022/03/24 08:20:43;;;;;;;24.38;11.10;;;8.10;99.90;;;;;;5026160;28;20048;-82
2022/03/24 08:23:13;;;;;;;24.05;11.50;;;8.20;99.90;;;;;;5026332;28;20029;-82
2022/03/24 08:25:40;;;;;;;24.13;11.63;;;8.30;99.90;;;;;;5021298;28;20033;-82
2022/03/24 08:28:10;;;;;;;23.70;11.60;;;8.50;99.80;;;;;;5111166;23;20032;-82
2022/03/24 08:30:57;;;;;;;26.45;13.43;;;8.60;99.50;;;;;;5096831;28;20039;-81
2022/03/24 08:33:23;;;;;;;24.25;10.82;;;8.70;98.20;;;;;;5095673;28;20013;-79
2022/03/24 08:35:58;;;;;;;24.33;11.23;;;8.80;97.80;;;;;;5092876;28;20020;-81
2022/03/24 08:38:52;;;;;;;24.33;13.07;;;9.00;96.50;;;;;;5097979;28;20013;-81
2022/03/24 08:41:29;;;;;;;26.23;11.85;;;9.20;96.00;;;;;;5097577;28;20039;-82
2022/03/24 08:44:27;;;;;;;25.33;11.27;;;9.30;95.30;;;;;;5100139;28;20037;-85
2022/03/24 08:50:51;;;;;;;25.35;12.00;;;9.90;92.80;;;;;;5016890;28;20149;-85
2022/03/24 08:53:07;;;;;;;24.83;11.35;;;11.10;90.30;;;;;;5028212;28;20022;-82
2022/03/24 08:55:36;;;;;;;30.65;13.73;;;10.80;85.10;;;;;;5099525;28;20044;-82
2022/03/24 08:58:10;;;;;;;30.77;11.83;;;10.70;82.50;;;;;;5090973;28;20508;-82
2022/03/24 09:00:36;;;;;;;26.33;12.32;;;10.60;83.90;;;;;;5099442;28;20036;-81
2022/03/24 09:03:01;;;;;;;27.40;12.63;;;10.70;82.60;;;;;;5106070;28;20053;-81
2022/03/24 09:05:27;;;;;;;25.45;12.93;;;10.50;82.00;;;;;;5113907;28;20089;-83
2022/03/24 09:07:53;;;;;;;27.52;13.18;;;10.50;82.00;;;;;;5097722;28;20436;-80
2022/03/24 09:10:19;;;;;;;26.38;12.00;;;10.50;80.00;;;;;;5089785;28;20024;-82
2022/03/24 09:13:03;;;;;;;23.77;11.48;;;10.30;79.90;;;;;;5090172;28;20012;-83
2022/03/24 09:15:32;;;;;;;27.65;11.68;;;10.60;80.90;;;;;;5079077;28;20059;-81
2022/03/24 09:18:53;;;;;;;24.65;12.20;;;10.90;82.90;;;;;;5078621;28;20150;-83
2022/03/24 09:21:19;;;;;;;25.25;11.82;;;11.20;80.20;;;;;;5070958;28;20555;-82
2022/03/24 09:23:45;;;;;;;22.55;11.00;;;11.20;82.40;;;;;;5059627;28;20054;-83
2022/03/24 09:26:13;;;;;;;28.65;13.07;;;11.40;80.10;;;;;;5060188;28;20036;-82
2022/03/24 09:28:55;;;;;;;29.65;11.00;;;12.80;79.10;;;;;;5066262;28;20004;-80
2022/03/24 09:31:28;;;;;;;24.80;12.45;;;11.70;77.90;;;;;;5069892;28;20100;-79
2022/03/24 09:34:25;;;;;;;23.73;12.10;;;11.60;77.30;;;;;;5070969;28;20037;-80
2022/03/24 09:36:53;;;;;;;26.23;11.90;;;11.60;77.00;;;;;;5070822;28;20044;-81
2022/03/24 09:40:12;;;;;;;23.83;11.48;;;11.80;75.40;;;;;;5082179;28;20044;-81
2022/03/24 09:42:39;;;;;;;23.30;11.40;;;11.90;72.50;;;;;;5064676;28;20098;-84
2022/03/24 09:45:09;;;;;;;26.95;12.55;;;11.40;70.30;;;;;;5064038;28;20025;-81
2022/03/24 09:47:37;;;;;;;27.13;11.23;;;12.40;69.70;;;;;;5085588;28;20091;-82
2022/03/24 09:50:27;;;;;;;31.88;13.35;;;12.50;69.20;;;;;;5085417;28;20013;-85
2022/03/24 09:53:13;;;;;;;23.83;11.48;;;12.70;69.10;;;;;;5071150;28;20052;-85
2022/03/24 09:55:42;;;;;;;33.58;12.40;;;12.80;68.40;;;;;;5071634;28;20154;-85
2022/03/24 09:58:14;;;;;;;27.40;11.18;;;12.90;68.70;;;;;;5085747;28;20028;-85
2022/03/24 10:01:22;;;;;;;25.23;10.77;;;13.00;66.50;;;;;;5088074;28;20028;-85
2022/03/24 10:04:38;;;;;;;23.65;10.90;;;12.90;65.10;;;;;;5072232;28;20079;-84
2022/03/24 10:07:10;;;;;;;26.80;10.48;;;13.00;64.20;;;;;;5060890;28;20021;-83
2022/03/24 10:09:47;;;;;;;21.83;10.35;;;13.20;63.70;;;;;;5073807;28;20015;-79
2022/03/24 10:12:53;;;;;;;21.92;11.68;;;13.10;63.40;;;;;;5071267;28;20032;-79
2022/03/24 10:15:58;;;;;;;25.25;11.90;;;13.20;62.80;;;;;;5066963;28;20132;-80
2022/03/24 10:19:01;;;;;;;18.95;10.40;;;13.20;65.90;;;;;;5075559;28;20017;-82
2022/03/24 10:21:50;;;;;;;21.90;10.73;;;13.40;63.80;;;;;;5090855;28;20044;-81
2022/03/24 10:25:27;;;;;;;24.15;10.68;;;13.60;59.80;;;;;;5095018;28;20044;-81
2022/03/24 10:27:51;;;;;;;22.60;11.98;;;13.80;60.50;;;;;;5062138;28;20040;-81
2022/03/24 10:30:17;;;;;;;21.25;11.00;;;13.80;57.90;;;;;;5093645;28;20047;-80
2022/03/24 10:32:55;;;;;;;28.60;10.73;;;13.70;57.40;;;;;;5091709;28;20017;-80
2022/03/24 10:35:21;;;;;;;21.05;11.63;;;13.80;58.60;;;;;;5094069;28;20004;-81
2022/03/24 10:37:52;;;;;;;19.17;10.68;;;14.00;58.60;;;;;;5077966;28;20040;-84
2022/03/24 10:40:27;;;;;;;30.83;11.43;;;14.20;58.60;;;;;;5076210;28;20017;-83
2022/03/24 10:43:23;;;;;;;27.35;11.63;;;14.10;55.90;;;;;;5077438;28;20028;-81
2022/03/24 10:46:19;;;;;;;20.95;10.57;;;13.90;56.60;;;;;;5094851;28;20012;-83
2022/03/24 10:48:49;;;;;;;23.02;10.70;;;15.90;57.80;;;;;;5072692;28;20055;-81
2022/03/24 10:51:26;;;;;;;23.45;12.07;;;14.40;56.90;;;;;;5091662;28;20039;-83
2022/03/24 10:54:02;;;;;;;21.20;10.70;;;14.50;56.10;;;;;;5079506;28;20028;-82
2022/03/24 10:56:33;;;;;;;17.52;10.25;;;14.60;57.60;;;;;;5076457;28;20037;-81
2022/03/24 10:59:03;;;;;;;25.67;11.23;;;14.80;57.30;;;;;;5053542;28;20033;-85
2022/03/24 11:01:33;;;;;;;20.15;10.88;;;14.90;56.30;;;;;;5062489;28;20048;-83
2022/03/24 11:03:59;;;;;;;22.58;11.32;;;14.80;55.80;;;;;;5068923;28;20036;-84
2022/03/24 11:06:27;;;;;;;21.17;11.50;;;14.90;56.40;;;;;;5104772;28;20031;-83
2022/03/24 11:08:59;;;;;;;26.33;12.38;;;15.00;54.70;;;;;;5091835;28;20031;-82
2022/03/24 11:11:26;;;;;;;22.35;12.10;;;15.00;55.00;;;;;;5108737;28;20020;-80
2022/03/24 11:13:56;;;;;;;26.80;10.65;;;14.90;55.10;;;;;;5105822;28;20038;-84
2022/03/24 11:16:33;;;;;;;20.58;11.88;;;15.20;54.90;;;;;;5109143;28;20063;-81
2022/03/24 11:19:01;;;;;;;21.75;11.40;;;15.10;52.80;;;;;;5109727;28;20119;-81
2022/03/24 11:21:39;;;;;;;22.90;11.75;;;15.20;53.60;;;;;;5110754;28;20582;-82
2022/03/24 11:24:08;;;;;;;21.80;10.43;;;15.00;52.50;;;;;;5113644;28;20023;-84
2022/03/24 11:26:35;;;;;;;19.40;10.98;;;15.00;54.50;;;;;;5112507;28;20054;-78
2022/03/24 11:29:02;;;;;;;22.25;11.30;;;15.30;52.90;;;;;;5112309;28;20035;-81
2022/03/24 11:31:30;;;;;;;22.67;10.93;;;15.40;52.70;;;;;;5103718;28;20013;-86
2022/03/24 11:34:00;;;;;;;28.38;12.43;;;15.70;52.40;;;;;;5078720;28;20029;-84
2022/03/24 11:36:27;;;;;;;19.88;11.30;;;15.80;54.70;;;;;;5079847;28;20025;-80
2022/03/24 11:38:56;;;;;;;22.45;13.15;;;15.90;51.60;;;;;;5063089;28;20116;-83
2022/03/24 11:41:35;;;;;;;23.90;11.98;;;15.70;51.50;;;;;;5090086;28;20029;-84
2022/03/24 11:44:29;;;;;;;23.02;12.32;;;15.80;50.70;;;;;;5074127;28;20028;-79
2022/03/24 11:46:59;;;;;;;22.40;12.57;;;16.00;51.70;;;;;;5083408;28;20132;-79
2022/03/24 11:49:27;;;;;;;18.55;10.75;;;16.20;53.70;;;;;;5071341;28;20082;-82
2022/03/24 11:51:58;;;;;;;25.48;11.63;;;16.40;52.70;;;;;;5073890;28;20028;-81
2022/03/24 11:54:38;;;;;;;22.63;11.27;;;16.50;51.10;;;;;;5072642;28;20016;-85
2022/03/24 11:57:22;;;;;;;21.98;11.77;;;16.20;51.50;;;;;;5056116;28;20520;-82
2022/03/24 11:59:49;;;;;;;19.40;10.80;;;16.40;48.70;;;;;;5065200;28;20100;-82
2022/03/24 12:02:19;;;;;;;20.90;11.10;;;16.70;49.30;;;;;;5082871;28;20029;-83
2022/03/24 12:04:56;;;;;;;21.55;11.60;;;17.00;49.40;;;;;;5061631;28;20016;-84
2022/03/24 12:07:22;;;;;;;22.02;12.10;;;17.50;48.50;;;;;;5063909;28;20055;-83
2022/03/24 12:09:57;;;;;;;17.52;9.85;;;18.00;47.00;;;;;;5070089;28;20236;-84
2022/03/24 12:12:23;;;;;;;22.52;11.82;;;18.40;46.60;;;;;;5072532;28;20505;-83
2022/03/24 12:14:53;;;;;;;47.72;12.60;;;19.00;45.90;;;;;;5066432;28;20143;-87
2022/03/24 12:17:31;;;;;;;19.25;11.68;;;20.00;44.60;;;;;;5049545;28;20029;-86
2022/03/24 12:19:59;;;;;;;15.65;10.55;;;21.10;42.70;;;;;;5065900;28;20096;-84
2022/03/24 12:22:33;;;;;;;18.05;10.50;;;21.80;42.90;;;;;;5065582;28;20021;-83
2022/03/24 12:24:59;;;;;;;22.60;11.77;;;21.50;44.60;;;;;;5049090;28;20569;-83
2022/03/24 12:27:26;;;;;;;32.03;12.50;;;19.40;45.10;;;;;;5048801;28;20135;-86
2022/03/24 12:30:14;;;;;;;23.88;12.18;;;19.90;44.10;;;;;;5065382;28;20528;-85
2022/03/24 12:32:41;;;;;;;18.87;11.70;;;19.70;44.30;;;;;;5065515;28;20056;-85
2022/03/24 12:35:08;;;;;;;21.65;11.25;;;19.30;45.10;;;;;;5050029;28;20040;-83
2022/03/24 12:37:34;;;;;;;19.50;10.23;;;19.50;45.40;;;;;;5048803;28;20017;-86
2022/03/24 12:40:07;;;;;;;19.90;11.20;;;20.40;44.30;;;;;;5048706;28;20023;-85
2022/03/24 12:42:47;;;;;;;20.25;10.85;;;20.60;43.70;;;;;;5048978;28;20036;-83
2022/03/24 12:45:33;;;;;;;18.95;11.27;;;21.50;42.80;;;;;;5066899;28;20025;-87
2022/03/24 12:48:06;;;;;;;16.50;10.75;;;21.70;41.60;;;;;;5035807;28;20090;-88
2022/03/24 12:50:37;;;;;;;18.15;11.48;;;21.50;42.80;;;;;;5067069;28;20084;-85
2022/03/24 12:53:08;;;;;;;18.50;11.45;;;21.50;41.50;;;;;;5050684;28;20623;-87
2022/03/24 12:55:39;;;;;;;19.63;12.30;;;21.80;41.60;;;;;;5067291;28;20512;-84